sensor_id;sensor_type;location;lat;lon;timestamp;pressure;altitude;pressure_sealevel;temperature;humidity
22647;BME280;11490;42.726;23.268;2022-12-07T00:01:36;95220.19;;;6.85;100.00
22647;BME280;11490;42.726;23.268;2022-12-07T00:04:04;95220.69;;;6.69;100.00
22647;BME280;11490;42.726;23.268;2022-12-07T00:06:36;95203.88;;;6.88;100.00
22647;BME280;11490;42.726;23.268;2022-12-07T00:09:03;95212.41;;;6.58;100.00
22647;BME280;11490;42.726;23.268;2022-12-07T00:11:28;95204.97;;;6.42;100.00
22647;BME280;11490;42.726;23.268;2022-12-07T00:13:56;95217.53;;;6.53;100.00
22647;BME280;11490;42.726;23.268;2022-12-07T00:16:24;95215.03;;;6.58;100.00
22647;BME280;11490;42.726;23.268;2022-12-07T00:18:49;95215.84;;;6.66;100.00
22647;BME280;11490;42.726;23.268;2022-12-07T00:21:18;95212.91;;;6.80;100.00
22647;BME280;11490;42.726;23.268;2022-12-07T00:23:44;95223.91;;;6.77;100.00
22647;BME280;11490;42.726;23.268;2022-12-07T00:26:25;95216.22;;;6.69;100.00
22647;BME280;11490;42.726;23.268;2022-12-07T00:28:56;95216.44;;;6.68;100.00
22647;BME280;11490;42.726;23.268;2022-12-07T00:31:25;95224.78;;;6.71;100.00
22647;BME280;11490;42.726;23.268;2022-12-07T00:33:51;95216.13;;;6.82;100.00
22647;BME280;11490;42.726;23.268;2022-12-07T00:36:22;95230.00;;;6.84;100.00
22647;BME280;11490;42.726;23.268;2022-12-07T00:38:48;95228.75;;;6.87;100.00
22647;BME280;11490;42.726;23.268;2022-12-07T00:41:22;95222.50;;;7.06;100.00
22647;BME280;11490;42.726;23.268;2022-12-07T00:43:48;95219.03;;;7.06;100.00
22647;BME280;11490;42.726;23.268;2022-12-07T00:46:15;95223.22;;;7.20;100.00
22647;BME280;11490;42.726;23.268;2022-12-07T00:48:41;95213.09;;;7.10;100.00
22647;BME280;11490;42.726;23.268;2022-12-07T00:51:07;95215.28;;;7.20;100.00
22647;BME280;11490;42.726;23.268;2022-12-07T00:53:36;95214.66;;;7.18;100.00
22647;BME280;11490;42.726;23.268;2022-12-07T00:56:12;95212.75;;;7.00;100.00
22647;BME280;11490;42.726;23.268;2022-12-07T00:58:38;95209.13;;;6.94;100.00
22647;BME280;11490;42.726;23.268;2022-12-07T01:01:05;95204.13;;;7.11;100.00
22647;BME280;11490;42.726;23.268;2022-12-07T01:03:31;95207.94;;;7.15;100.00
22647;BME280;11490;42.726;23.268;2022-12-07T01:05:57;95205.41;;;7.27;100.00
22647;BME280;11490;42.726;23.268;2022-12-07T01:08:23;95207.25;;;7.26;100.00
22647;BME280;11490;42.726;23.268;2022-12-07T01:11:06;95216.19;;;7.32;100.00
22647;BME280;11490;42.726;23.268;2022-12-07T01:13:33;95213.53;;;7.32;100.00
22647;BME280;11490;42.726;23.268;2022-12-07T01:16:01;95212.47;;;7.08;100.00
22647;BME280;11490;42.726;23.268;2022-12-07T01:18:31;95190.59;;;7.19;100.00
22647;BME280;11490;42.726;23.268;2022-12-07T01:21:08;95209.63;;;7.34;100.00
22647;BME280;11490;42.726;23.268;2022-12-07T01:23:34;95199.88;;;7.28;100.00
22647;BME280;11490;42.726;23.268;2022-12-07T01:26:03;95198.56;;;7.38;100.00
22647;BME280;11490;42.726;23.268;2022-12-07T01:28:30;95194.25;;;7.18;100.00
22647;BME280;11490;42.726;23.268;2022-12-07T01:31:03;95193.94;;;7.08;100.00
22647;BME280;11490;42.726;23.268;2022-12-07T01:33:31;95191.81;;;7.17;100.00
22647;BME280;11490;42.726;23.268;2022-12-07T01:36:18;95193.28;;;6.88;100.00
22647;BME280;11490;42.726;23.268;2022-12-07T01:38:45;95190.34;;;6.96;100.00
22647;BME280;11490;42.726;23.268;2022-12-07T01:41:11;95191.47;;;7.07;100.00
22647;BME280;11490;42.726;23.268;2022-12-07T01:46:34;95182.13;;;7.04;100.00
22647;BME280;11490;42.726;23.268;2022-12-07T01:49:00;95183.03;;;6.91;100.00
22647;BME280;11490;42.726;23.268;2022-12-07T01:51:27;95166.22;;;7.04;100.00
22647;BME280;11490;42.726;23.268;2022-12-07T01:53:53;95177.38;;;6.88;100.00
22647;BME280;11490;42.726;23.268;2022-12-07T01:56:23;95177.25;;;7.01;100.00
22647;BME280;11490;42.726;23.268;2022-12-07T01:58:50;95162.53;;;7.05;100.00
22647;BME280;11490;42.726;23.268;2022-12-07T02:01:17;95172.81;;;6.95;100.00
22647;BME280;11490;42.726;23.268;2022-12-07T02:03:43;95173.91;;;6.87;100.00
22647;BME280;11490;42.726;23.268;2022-12-07T02:06:12;95176.84;;;7.04;100.00
22647;BME280;11490;42.726;23.268;2022-12-07T02:08:40;95167.41;;;7.08;100.00
22647;BME280;11490;42.726;23.268;2022-12-07T02:11:07;95161.97;;;7.21;100.00
22647;BME280;11490;42.726;23.268;2022-12-07T02:13:35;95161.41;;;7.19;100.00
22647;BME280;11490;42.726;23.268;2022-12-07T02:19:09;95177.88;;;6.72;100.00
22647;BME280;11490;42.726;23.268;2022-12-07T02:21:45;95170.59;;;6.92;100.00
22647;BME280;11490;42.726;23.268;2022-12-07T02:27:20;95170.22;;;7.13;100.00
22647;BME280;11490;42.726;23.268;2022-12-07T02:30:03;95152.03;;;6.92;100.00
22647;BME280;11490;42.726;23.268;2022-12-07T02:32:48;95156.78;;;7.08;100.00
22647;BME280;11490;42.726;23.268;2022-12-07T02:35:23;95160.06;;;7.10;100.00
22647;BME280;11490;42.726;23.268;2022-12-07T02:38:46;95160.31;;;6.77;100.00
22647;BME280;11490;42.726;23.268;2022-12-07T02:41:12;95160.25;;;6.84;100.00
22647;BME280;11490;42.726;23.268;2022-12-07T02:44:04;95173.97;;;6.49;100.00
22647;BME280;11490;42.726;23.268;2022-12-07T02:46:43;95156.06;;;6.38;100.00
22647;BME280;11490;42.726;23.268;2022-12-07T02:49:10;95155.16;;;6.51;100.00
22647;BME280;11490;42.726;23.268;2022-12-07T02:51:41;95152.56;;;6.44;100.00
22647;BME280;11490;42.726;23.268;2022-12-07T02:54:18;95144.56;;;6.57;100.00
22647;BME280;11490;42.726;23.268;2022-12-07T03:04:26;95138.69;;;6.74;100.00
22647;BME280;11490;42.726;23.268;2022-12-07T03:07:01;95138.69;;;6.74;100.00
22647;BME280;11490;42.726;23.268;2022-12-07T03:09:43;95143.47;;;6.65;100.00
22647;BME280;11490;42.726;23.268;2022-12-07T03:12:15;95143.44;;;6.40;100.00
22647;BME280;11490;42.726;23.268;2022-12-07T03:14:49;95138.91;;;6.47;100.00
22647;BME280;11490;42.726;23.268;2022-12-07T03:17:24;95145.88;;;6.35;100.00
22647;BME280;11490;42.726;23.268;2022-12-07T03:19:53;95129.03;;;5.92;100.00
22647;BME280;11490;42.726;23.268;2022-12-07T03:22:21;95136.31;;;6.03;100.00
22647;BME280;11490;42.726;23.268;2022-12-07T03:24:50;95145.13;;;6.28;100.00
22647;BME280;11490;42.726;23.268;2022-12-07T03:27:23;95147.69;;;6.10;100.00
22647;BME280;11490;42.726;23.268;2022-12-07T03:29:54;95149.47;;;6.16;100.00
22647;BME280;11490;42.726;23.268;2022-12-07T03:32:35;95139.81;;;6.28;100.00
22647;BME280;11490;42.726;23.268;2022-12-07T03:35:07;95142.56;;;6.46;100.00
22647;BME280;11490;42.726;23.268;2022-12-07T03:38:44;95140.13;;;6.45;100.00
22647;BME280;11490;42.726;23.268;2022-12-07T03:41:12;95143.75;;;6.50;100.00
22647;BME280;11490;42.726;23.268;2022-12-07T03:43:40;95139.72;;;6.48;100.00
22647;BME280;11490;42.726;23.268;2022-12-07T03:49:00;95152.75;;;6.49;100.00
22647;BME280;11490;42.726;23.268;2022-12-07T03:54:19;95134.00;;;6.13;100.00
22647;BME280;11490;42.726;23.268;2022-12-07T03:56:48;95133.19;;;6.19;100.00
22647;BME280;11490;42.726;23.268;2022-12-07T03:59:15;95141.19;;;6.37;100.00
22647;BME280;11490;42.726;23.268;2022-12-07T04:01:43;95136.16;;;6.29;100.00
22647;BME280;11490;42.726;23.268;2022-12-07T04:04:09;95133.25;;;6.37;100.00
22647;BME280;11490;42.726;23.268;2022-12-07T04:06:34;95124.25;;;6.45;100.00
22647;BME280;11490;42.726;23.268;2022-12-07T04:09:00;95094.81;;;6.28;100.00
22647;BME280;11490;42.726;23.268;2022-12-07T04:11:25;95129.69;;;6.56;100.00
22647;BME280;11490;42.726;23.268;2022-12-07T04:13:50;95134.16;;;6.56;100.00
22647;BME280;11490;42.726;23.268;2022-12-07T04:16:34;95125.50;;;6.42;100.00
22647;BME280;11490;42.726;23.268;2022-12-07T04:19:00;95133.34;;;6.24;100.00
22647;BME280;11490;42.726;23.268;2022-12-07T04:21:25;95136.16;;;6.29;100.00
22647;BME280;11490;42.726;23.268;2022-12-07T04:23:50;95138.75;;;6.42;100.00
22647;BME280;11490;42.726;23.268;2022-12-07T04:26:16;95140.13;;;6.45;100.00
22647;BME280;11490;42.726;23.268;2022-12-07T04:28:41;95142.56;;;6.46;100.00
22647;BME280;11490;42.726;23.268;2022-12-07T04:31:06;95138.81;;;6.29;100.00
22647;BME280;11490;42.726;23.268;2022-12-07T04:33:32;95126.00;;;6.26;100.00
22647;BME280;11490;42.726;23.268;2022-12-07T04:35:57;95127.97;;;6.37;100.00
22647;BME280;11490;42.726;23.268;2022-12-07T04:38:22;95134.03;;;6.44;100.00
22647;BME280;11490;42.726;23.268;2022-12-07T04:40:48;95130.00;;;6.35;100.00
22647;BME280;11490;42.726;23.268;2022-12-07T04:43:13;95137.75;;;6.37;100.00
22647;BME280;11490;42.726;23.268;2022-12-07T04:45:39;95138.19;;;6.34;100.00
22647;BME280;11490;42.726;23.268;2022-12-07T04:48:04;95137.78;;;6.30;100.00
22647;BME280;11490;42.726;23.268;2022-12-07T04:50:30;95141.00;;;6.39;100.00
22647;BME280;11490;42.726;23.268;2022-12-07T04:52:55;95147.09;;;6.39;100.00
22647;BME280;11490;42.726;23.268;2022-12-07T04:55:20;95150.63;;;6.33;100.00
22647;BME280;11490;42.726;23.268;2022-12-07T04:57:46;95159.38;;;6.34;100.00
22647;BME280;11490;42.726;23.268;2022-12-07T05:00:11;95148.00;;;6.27;100.00
22647;BME280;11490;42.726;23.268;2022-12-07T05:02:36;95132.34;;;5.67;100.00
22647;BME280;11490;42.726;23.268;2022-12-07T05:05:02;95146.41;;;5.61;100.00
22647;BME280;11490;42.726;23.268;2022-12-07T05:07:27;95139.00;;;5.90;100.00
22647;BME280;11490;42.726;23.268;2022-12-07T05:09:53;95123.72;;;5.92;100.00
22647;BME280;11490;42.726;23.268;2022-12-07T05:12:18;95140.44;;;5.86;100.00
22647;BME280;11490;42.726;23.268;2022-12-07T05:14:43;95129.53;;;5.62;100.00
22647;BME280;11490;42.726;23.268;2022-12-07T05:17:09;95124.50;;;5.41;100.00
22647;BME280;11490;42.726;23.268;2022-12-07T05:19:36;95144.97;;;5.65;100.00
22647;BME280;11490;42.726;23.268;2022-12-07T05:22:01;95145.72;;;5.86;100.00
22647;BME280;11490;42.726;23.268;2022-12-07T05:24:27;95144.34;;;5.70;100.00
22647;BME280;11490;42.726;23.268;2022-12-07T05:26:52;95136.38;;;5.76;100.00
22647;BME280;11490;42.726;23.268;2022-12-07T05:29:18;95144.16;;;5.58;100.00
22647;BME280;11490;42.726;23.268;2022-12-07T05:31:43;95144.50;;;5.81;100.00
22647;BME280;11490;42.726;23.268;2022-12-07T05:34:09;95146.34;;;5.88;100.00
22647;BME280;11490;42.726;23.268;2022-12-07T05:36:35;95143.47;;;5.96;100.00
22647;BME280;11490;42.726;23.268;2022-12-07T05:39:00;95144.09;;;5.85;100.00
22647;BME280;11490;42.726;23.268;2022-12-07T05:41:26;95147.53;;;5.92;100.00
22647;BME280;11490;42.726;23.268;2022-12-07T05:44:10;95144.66;;;6.00;100.00
22647;BME280;11490;42.726;23.268;2022-12-07T05:46:35;95144.44;;;6.08;100.00
22647;BME280;11490;42.726;23.268;2022-12-07T05:49:01;95136.66;;;6.13;100.00
22647;BME280;11490;42.726;23.268;2022-12-07T05:51:27;95119.34;;;6.17;100.00
22647;BME280;11490;42.726;23.268;2022-12-07T05:53:53;95111.38;;;6.17;100.00
22647;BME280;11490;42.726;23.268;2022-12-07T05:56:18;95134.53;;;6.28;100.00
22647;BME280;11490;42.726;23.268;2022-12-07T05:58:44;95120.19;;;6.11;100.00
22647;BME280;11490;42.726;23.268;2022-12-07T06:01:28;95122.88;;;6.36;100.00
22647;BME280;11490;42.726;23.268;2022-12-07T06:03:53;95119.44;;;6.29;100.00
22647;BME280;11490;42.726;23.268;2022-12-07T06:06:19;95135.28;;;6.35;100.00
22647;BME280;11490;42.726;23.268;2022-12-07T06:08:44;95119.94;;;6.19;100.00
22647;BME280;11490;42.726;23.268;2022-12-07T06:11:10;95121.56;;;6.13;100.00
22647;BME280;11490;42.726;23.268;2022-12-07T06:13:53;95130.91;;;6.23;100.00
22647;BME280;11490;42.726;23.268;2022-12-07T06:16:19;95137.59;;;5.80;100.00
22647;BME280;11490;42.726;23.268;2022-12-07T06:18:44;95128.25;;;5.78;100.00
22647;BME280;11490;42.726;23.268;2022-12-07T06:21:09;95135.94;;;5.93;100.00
22647;BME280;11490;42.726;23.268;2022-12-07T06:23:35;95103.38;;;5.86;100.00
22647;BME280;11490;42.726;23.268;2022-12-07T06:26:00;95141.13;;;6.19;100.00
22647;BME280;11490;42.726;23.268;2022-12-07T06:28:26;95144.31;;;6.28;100.00
22647;BME280;11490;42.726;23.268;2022-12-07T06:31:01;95137.00;;;6.23;100.00
22647;BME280;11490;42.726;23.268;2022-12-07T06:33:28;95147.16;;;6.33;100.00
22647;BME280;11490;42.726;23.268;2022-12-07T06:35:53;95156.47;;;6.42;100.00
22647;BME280;11490;42.726;23.268;2022-12-07T06:38:19;95145.63;;;6.43;100.00
22647;BME280;11490;42.726;23.268;2022-12-07T06:40:44;95148.63;;;6.53;100.00
22647;BME280;11490;42.726;23.268;2022-12-07T06:43:09;95151.25;;;6.60;100.00
22647;BME280;11490;42.726;23.268;2022-12-07T06:45:35;95156.06;;;6.38;100.00
22647;BME280;11490;42.726;23.268;2022-12-07T06:48:00;95163.91;;;6.20;100.00
22647;BME280;11490;42.726;23.268;2022-12-07T06:50:26;95147.19;;;6.26;100.00
22647;BME280;11490;42.726;23.268;2022-12-07T06:52:52;95173.97;;;6.49;100.00
22647;BME280;11490;42.726;23.268;2022-12-07T06:55:18;95163.69;;;6.60;100.00
22647;BME280;11490;42.726;23.268;2022-12-07T06:57:43;95163.38;;;6.43;100.00
22647;BME280;11490;42.726;23.268;2022-12-07T07:00:10;95151.34;;;6.47;100.00
22647;BME280;11490;42.726;23.268;2022-12-07T07:02:35;95150.28;;;6.54;100.00
22647;BME280;11490;42.726;23.268;2022-12-07T07:05:01;95155.16;;;6.57;100.00
22647;BME280;11490;42.726;23.268;2022-12-07T07:07:26;95156.34;;;6.62;100.00
22647;BME280;11490;42.726;23.268;2022-12-07T07:09:52;95130.50;;;6.50;100.00
22647;BME280;11490;42.726;23.268;2022-12-07T07:12:17;95156.41;;;6.80;100.00
22647;BME280;11490;42.726;23.268;2022-12-07T07:14:43;95159.66;;;6.82;100.00
22647;BME280;11490;42.726;23.268;2022-12-07T07:17:08;95152.09;;;6.85;100.00
22647;BME280;11490;42.726;23.268;2022-12-07T07:19:33;95164.41;;;6.98;100.00
22647;BME280;11490;42.726;23.268;2022-12-07T07:21:59;95152.19;;;6.97;100.00
22647;BME280;11490;42.726;23.268;2022-12-07T07:24:24;95150.31;;;7.04;100.00
22647;BME280;11490;42.726;23.268;2022-12-07T07:26:49;95162.84;;;7.15;100.00
22647;BME280;11490;42.726;23.268;2022-12-07T07:29:15;95161.16;;;7.21;100.00
22647;BME280;11490;42.726;23.268;2022-12-07T07:31:40;95160.69;;;7.30;100.00
22647;BME280;11490;42.726;23.268;2022-12-07T07:34:05;95158.63;;;7.32;100.00
22647;BME280;11490;42.726;23.268;2022-12-07T07:36:31;95153.16;;;7.27;100.00
22647;BME280;11490;42.726;23.268;2022-12-07T07:38:56;95164.69;;;7.40;100.00
22647;BME280;11490;42.726;23.268;2022-12-07T07:41:21;95159.22;;;7.53;100.00
22647;BME280;11490;42.726;23.268;2022-12-07T07:43:47;95149.97;;;7.62;99.83
22647;BME280;11490;42.726;23.268;2022-12-07T07:46:12;95166.16;;;7.54;99.96
22647;BME280;11490;42.726;23.268;2022-12-07T07:48:37;95153.19;;;7.46;100.00
22647;BME280;11490;42.726;23.268;2022-12-07T07:51:07;95169.88;;;7.71;100.00
22647;BME280;11490;42.726;23.268;2022-12-07T07:53:33;95155.78;;;7.70;98.84
22647;BME280;11490;42.726;23.268;2022-12-07T07:55:59;95141.31;;;7.48;100.00
22647;BME280;11490;42.726;23.268;2022-12-07T07:58:24;95150.56;;;7.64;98.58
22647;BME280;11490;42.726;23.268;2022-12-07T08:00:49;95150.25;;;7.72;98.34
22647;BME280;11490;42.726;23.268;2022-12-07T08:03:15;95136.81;;;7.67;98.31
22647;BME280;11490;42.726;23.268;2022-12-07T08:05:40;95165.44;;;7.83;97.51
22647;BME280;11490;42.726;23.268;2022-12-07T08:08:06;95160.59;;;7.80;97.71
22647;BME280;11490;42.726;23.268;2022-12-07T08:10:40;95148.34;;;7.61;99.26
22647;BME280;11490;42.726;23.268;2022-12-07T08:13:08;95163.06;;;7.75;98.53
22647;BME280;11490;42.726;23.268;2022-12-07T08:15:38;95167.81;;;7.91;98.54
22647;BME280;11490;42.726;23.268;2022-12-07T08:18:04;95156.56;;;8.07;99.60
22647;BME280;11490;42.726;23.268;2022-12-07T08:20:31;95153.94;;;8.56;99.38
22647;BME280;11490;42.726;23.268;2022-12-07T08:22:57;95158.38;;;9.50;95.46
22647;BME280;11490;42.726;23.268;2022-12-07T08:25:23;95133.41;;;10.43;89.01
22647;BME280;11490;42.726;23.268;2022-12-07T08:27:49;95160.38;;;11.53;84.27
22647;BME280;11490;42.726;23.268;2022-12-07T08:30:14;95168.38;;;12.79;78.32
22647;BME280;11490;42.726;23.268;2022-12-07T08:32:40;95167.16;;;13.45;75.40
22647;BME280;11490;42.726;23.268;2022-12-07T08:35:06;95166.97;;;14.46;70.47
22647;BME280;11490;42.726;23.268;2022-12-07T08:37:31;95145.66;;;15.37;65.86
22647;BME280;11490;42.726;23.268;2022-12-07T08:39:57;95172.00;;;15.91;64.55
22647;BME280;11490;42.726;23.268;2022-12-07T08:42:23;95139.72;;;15.91;62.07
22647;BME280;11490;42.726;23.268;2022-12-07T08:44:52;95160.88;;;14.08;69.85
22647;BME280;11490;42.726;23.268;2022-12-07T08:47:18;95130.00;;;14.73;66.46
22647;BME280;11490;42.726;23.268;2022-12-07T08:49:47;95143.94;;;14.55;66.24
22647;BME280;11490;42.726;23.268;2022-12-07T08:52:15;95141.81;;;14.62;67.51
22647;BME280;11490;42.726;23.268;2022-12-07T08:54:41;95157.78;;;15.70;64.52
22647;BME280;11490;42.726;23.268;2022-12-07T08:57:08;95149.44;;;15.87;62.64
22647;BME280;11490;42.726;23.268;2022-12-07T08:59:36;95139.72;;;15.81;62.29
22647;BME280;11490;42.726;23.268;2022-12-07T09:02:03;95144.78;;;14.08;65.80
22647;BME280;11490;42.726;23.268;2022-12-07T09:04:28;95133.63;;;12.30;73.37
22647;BME280;11490;42.726;23.268;2022-12-07T09:06:54;95133.34;;;12.53;73.23
22647;BME280;11490;42.726;23.268;2022-12-07T09:09:20;95125.97;;;11.95;74.23
22647;BME280;11490;42.726;23.268;2022-12-07T09:11:45;95124.72;;;11.64;77.21
22647;BME280;11490;42.726;23.268;2022-12-07T09:14:11;95125.81;;;10.96;80.33
22647;BME280;11490;42.726;23.268;2022-12-07T09:16:37;95117.19;;;11.06;79.92
22647;BME280;11490;42.726;23.268;2022-12-07T09:19:03;95121.22;;;10.18;82.63
22647;BME280;11490;42.726;23.268;2022-12-07T09:21:29;95106.28;;;10.17;84.19
22647;BME280;11490;42.726;23.268;2022-12-07T09:23:54;95116.47;;;10.09;85.43
22647;BME280;11490;42.726;23.268;2022-12-07T09:26:20;95112.06;;;10.14;84.21
22647;BME280;11490;42.726;23.268;2022-12-07T09:28:46;95113.88;;;9.74;85.94
22647;BME280;11490;42.726;23.268;2022-12-07T09:31:11;95110.88;;;9.82;86.27
22647;BME280;11490;42.726;23.268;2022-12-07T09:33:36;95105.91;;;9.62;86.76
22647;BME280;11490;42.726;23.268;2022-12-07T09:36:03;95086.63;;;9.20;89.03
22647;BME280;11490;42.726;23.268;2022-12-07T09:38:28;95085.34;;;8.99;89.74
22647;BME280;11490;42.726;23.268;2022-12-07T09:40:55;95082.94;;;8.98;90.91
22647;BME280;11490;42.726;23.268;2022-12-07T09:43:23;95073.63;;;8.65;91.35
22647;BME280;11490;42.726;23.268;2022-12-07T09:45:54;95090.34;;;9.19;90.74
22647;BME280;11490;42.726;23.268;2022-12-07T09:48:23;95081.19;;;9.26;89.68
22647;BME280;11490;42.726;23.268;2022-12-07T09:50:51;95074.81;;;9.16;90.56
22647;BME280;11490;42.726;23.268;2022-12-07T09:53:27;95074.25;;;9.25;90.33
22647;BME280;11490;42.726;23.268;2022-12-07T09:55:54;95068.81;;;9.09;89.86
22647;BME280;11490;42.726;23.268;2022-12-07T09:58:24;95065.09;;;9.33;90.44
22647;BME280;11490;42.726;23.268;2022-12-07T10:08:00;95006.56;;;9.73;87.74
22647;BME280;11490;42.726;23.268;2022-12-07T10:10:37;95043.25;;;9.83;87.08
22647;BME280;11490;42.726;23.268;2022-12-07T10:13:11;95021.44;;;9.86;86.40
22647;BME280;11490;42.726;23.268;2022-12-07T10:15:57;95057.44;;;10.28;85.34
22647;BME280;11490;42.726;23.268;2022-12-07T10:18:32;95025.03;;;10.20;84.62
22647;BME280;11490;42.726;23.268;2022-12-07T10:21:17;95049.84;;;10.20;84.96
22647;BME280;11490;42.726;23.268;2022-12-07T10:24:03;94988.22;;;10.33;86.86
22647;BME280;11490;42.726;23.268;2022-12-07T10:26:38;94967.13;;;9.87;86.27
22647;BME280;11490;42.726;23.268;2022-12-07T10:31:42;95001.84;;;9.63;87.76
22647;BME280;11490;42.726;23.268;2022-12-07T10:34:42;94965.16;;;9.54;87.75
22647;BME280;11490;42.726;23.268;2022-12-07T10:37:28;95031.06;;;9.87;87.47
22647;BME280;11490;42.726;23.268;2022-12-07T10:39:58;94956.66;;;9.69;88.43
22647;BME280;11490;42.726;23.268;2022-12-07T10:42:31;95029.41;;;10.26;88.06
22647;BME280;11490;42.726;23.268;2022-12-07T10:45:18;95006.16;;;10.38;86.28
22647;BME280;11490;42.726;23.268;2022-12-07T10:51:24;95008.25;;;10.08;87.16
22647;BME280;11490;42.726;23.268;2022-12-07T10:53:59;94971.41;;;9.88;86.46
22647;BME280;11490;42.726;23.268;2022-12-07T11:05:05;94924.31;;;9.77;87.77
22647;BME280;11490;42.726;23.268;2022-12-07T11:13:34;94982.09;;;10.04;85.62
22647;BME280;11490;42.726;23.268;2022-12-07T11:22:42;94945.25;;;9.85;87.38
22647;BME280;11490;42.726;23.268;2022-12-07T11:28:25;94954.97;;;9.91;87.34
22647;BME280;11490;42.726;23.268;2022-12-07T11:30:58;94952.78;;;9.59;88.35
22647;BME280;11490;42.726;23.268;2022-12-07T11:33:41;94938.63;;;9.87;87.83
22647;BME280;11490;42.726;23.268;2022-12-07T11:38:53;94953.38;;;10.23;86.88
22647;BME280;11490;42.726;23.268;2022-12-07T11:41:23;94968.34;;;9.96;86.40
22647;BME280;11490;42.726;23.268;2022-12-07T11:43:54;94946.53;;;9.82;87.19
22647;BME280;11490;42.726;23.268;2022-12-07T11:46:26;94935.34;;;9.52;87.60
22647;BME280;11490;42.726;23.268;2022-12-07T11:49:02;94945.19;;;9.68;88.18
22647;BME280;11490;42.726;23.268;2022-12-07T11:51:33;94939.75;;;9.91;87.77
22647;BME280;11490;42.726;23.268;2022-12-07T11:54:26;94927.28;;;9.63;87.93
22647;BME280;11490;42.726;23.268;2022-12-07T11:56:56;94946.25;;;9.67;88.02
22647;BME280;11490;42.726;23.268;2022-12-07T11:59:39;94925.84;;;9.73;88.56
22647;BME280;11490;42.726;23.268;2022-12-07T12:02:18;94919.91;;;9.82;88.33
22647;BME280;11490;42.726;23.268;2022-12-07T12:07:24;94910.97;;;10.05;87.44
22647;BME280;11490;42.726;23.268;2022-12-07T12:09:58;94902.31;;;10.15;86.74
22647;BME280;11490;42.726;23.268;2022-12-07T12:15:19;94906.53;;;10.11;86.89
22647;BME280;11490;42.726;23.268;2022-12-07T12:21:12;94897.59;;;10.33;85.37
22647;BME280;11490;42.726;23.268;2022-12-07T12:26:34;94896.66;;;10.61;85.96
22647;BME280;11490;42.726;23.268;2022-12-07T12:29:21;94889.66;;;10.38;85.52
22647;BME280;11490;42.726;23.268;2022-12-07T12:32:12;94888.28;;;10.53;86.43
22647;BME280;11490;42.726;23.268;2022-12-07T12:42:56;94871.22;;;10.54;85.59
22647;BME280;11490;42.726;23.268;2022-12-07T12:45:33;94872.41;;;10.63;85.81
22647;BME280;11490;42.726;23.268;2022-12-07T12:48:04;94863.00;;;10.77;85.00
22647;BME280;11490;42.726;23.268;2022-12-07T12:50:35;94879.09;;;11.04;84.37
22647;BME280;11490;42.726;23.268;2022-12-07T12:55:49;94866.28;;;10.84;83.65
22647;BME280;11490;42.726;23.268;2022-12-07T13:03:53;94872.66;;;11.22;82.84
22647;BME280;11490;42.726;23.268;2022-12-07T13:06:39;94876.28;;;11.15;82.83
22647;BME280;11490;42.726;23.268;2022-12-07T13:09:19;94886.00;;;11.22;83.41
22647;BME280;11490;42.726;23.268;2022-12-07T13:11:47;94872.56;;;11.16;82.93
22647;BME280;11490;42.726;23.268;2022-12-07T13:14:37;94885.47;;;11.25;83.16
22647;BME280;11490;42.726;23.268;2022-12-07T13:17:08;94881.25;;;11.29;83.48
22647;BME280;11490;42.726;23.268;2022-12-07T13:25:09;94866.50;;;10.99;83.75
22647;BME280;11490;42.726;23.268;2022-12-07T13:27:39;94857.19;;;10.80;84.81
22647;BME280;11490;42.726;23.268;2022-12-07T13:30:23;94836.47;;;10.87;84.02
22647;BME280;11490;42.726;23.268;2022-12-07T13:32:58;94820.06;;;10.57;84.57
22647;BME280;11490;42.726;23.268;2022-12-07T13:35:37;94850.59;;;10.66;85.25
22647;BME280;11490;42.726;23.268;2022-12-07T13:38:27;94858.66;;;10.93;85.27
22647;BME280;11490;42.726;23.268;2022-12-07T13:41:24;94850.75;;;10.76;85.78
22647;BME280;11490;42.726;23.268;2022-12-07T13:43:54;94861.53;;;10.86;85.83
22647;BME280;11490;42.726;23.268;2022-12-07T13:46:29;94865.25;;;10.85;85.56
22647;BME280;11490;42.726;23.268;2022-12-07T13:48:56;94851.78;;;10.75;85.50
22647;BME280;11490;42.726;23.268;2022-12-07T13:51:26;94858.03;;;10.64;86.14
22647;BME280;11490;42.726;23.268;2022-12-07T13:54:26;94857.00;;;10.87;85.64
22647;BME280;11490;42.726;23.268;2022-12-07T13:56:52;94836.84;;;10.74;85.70
22647;BME280;11490;42.726;23.268;2022-12-07T13:59:23;94864.28;;;10.91;85.79
22647;BME280;11490;42.726;23.268;2022-12-07T14:01:51;94862.31;;;10.87;85.50
22647;BME280;11490;42.726;23.268;2022-12-07T14:07:00;94822.13;;;10.71;85.87
22647;BME280;11490;42.726;23.268;2022-12-07T14:09:29;94827.84;;;10.80;86.22
22647;BME280;11490;42.726;23.268;2022-12-07T14:11:56;94853.09;;;10.94;85.94
22647;BME280;11490;42.726;23.268;2022-12-07T14:14:26;94848.41;;;10.85;85.65
22647;BME280;11490;42.726;23.268;2022-12-07T14:22:30;94869.84;;;10.68;86.68
22647;BME280;11490;42.726;23.268;2022-12-07T14:27:33;94830.25;;;10.60;86.65
22647;BME280;11490;42.726;23.268;2022-12-07T14:30:15;94846.09;;;10.50;87.83
22647;BME280;11490;42.726;23.268;2022-12-07T14:32:41;94878.59;;;10.47;88.63
22647;BME280;11490;42.726;23.268;2022-12-07T14:35:16;94878.59;;;10.47;88.19
22647;BME280;11490;42.726;23.268;2022-12-07T14:37:44;94855.16;;;10.49;88.25
22647;BME280;11490;42.726;23.268;2022-12-07T14:40:19;94839.78;;;10.17;89.46
22647;BME280;11490;42.726;23.268;2022-12-07T14:42:45;94840.47;;;9.96;90.58
22647;BME280;11490;42.726;23.268;2022-12-07T14:45:20;94840.16;;;10.09;89.49
22647;BME280;11490;42.726;23.268;2022-12-07T14:47:45;94828.84;;;10.02;89.52
22647;BME280;11490;42.726;23.268;2022-12-07T14:50:13;94855.66;;;10.12;89.52
22647;BME280;11490;42.726;23.268;2022-12-07T14:52:39;94847.09;;;10.10;89.33
22647;BME280;11490;42.726;23.268;2022-12-07T14:55:51;94870.69;;;10.18;89.36